Time;durP1;ratioP1;P1;durP2;ratioP2;P2;SDS_P1;SDS_P2;PMS_P1;PMS_P2;Temp;Humidity;BMP_temperature;BMP_pressure;BME280_temperature;BME280_humidity;BME280_pressure;Samples;Min_cycle;Max_cycle;Signal;HPM_P1;HPM_P2
2023/01/30 00:00:31;;;;;;;26.55;14.60;;;;;;;;;;5004922;28;20029;-85
2023/01/30 00:02:57;;;;;;;31.77;15.60;;;;;;;;;;4989356;28;20029;-85
2023/01/30 00:05:22;;;;;;;31.55;15.95;;;;;;;;;;4984474;28;20041;-83
2023/01/30 00:07:47;;;;;;;31.50;16.02;;;;;;;;;;4983478;28;20025;-84
2023/01/30 00:10:13;;;;;;;29.98;15.10;;;;;;;;;;4989700;28;20026;-85
2023/01/30 00:12:39;;;;;;;28.40;14.23;;;;;;;;;;5005820;28;20022;-84
2023/01/30 00:15:05;;;;;;;29.33;16.10;;;;;;;;;;5005452;28;20053;-86
2023/01/30 00:17:30;;;;;;;29.75;15.88;;;;;;;;;;5001290;28;20069;-83
2023/01/30 00:19:56;;;;;;;30.67;15.75;;;;;;;;;;4989796;28;20045;-80
2023/01/30 00:22:21;;;;;;;32.88;16.27;;;;;;;;;;5003400;28;20037;-84
2023/01/30 00:24:47;;;;;;;31.42;16.98;;;;;;;;;;4987553;28;20043;-85
2023/01/30 00:27:12;;;;;;;26.85;15.23;;;;;;;;;;4981709;28;20018;-85
2023/01/30 00:29:37;;;;;;;29.55;16.08;;;;;;;;;;5004807;28;20044;-84
2023/01/30 00:32:03;;;;;;;27.95;15.40;;;;;;;;;;5001414;28;20025;-85
2023/01/30 00:34:28;;;;;;;28.10;14.60;;;;;;;;;;4987919;28;20637;-84
2023/01/30 00:36:54;;;;;;;27.80;15.88;;;;;;;;;;5005415;28;20028;-85
2023/01/30 00:39:19;;;;;;;29.30;15.05;;;;;;;;;;5005476;28;20056;-81
2023/01/30 00:47:12;;;;;;;25.83;15.40;;;;;;;;;;5001102;28;20033;-83
2023/01/30 00:49:38;;;;;;;25.90;14.82;;;;;;;;;;4980155;28;20029;-85
2023/01/30 00:52:04;;;;;;;29.65;16.02;;;;;;;;;;4985672;28;21241;-85
2023/01/30 00:54:30;;;;;;;26.48;14.57;;;;;;;;;;5001869;28;20037;-84
2023/01/30 00:56:55;;;;;;;26.95;14.73;;;;;;;;;;5002281;28;20034;-85
2023/01/30 00:59:21;;;;;;;24.65;14.43;;;;;;;;;;4993975;28;20028;-84
2023/01/30 01:01:46;;;;;;;27.95;14.95;;;;;;;;;;4988337;28;20040;-85
2023/01/30 01:04:12;;;;;;;29.73;15.15;;;;;;;;;;5000124;28;20037;-81
2023/01/30 01:06:37;;;;;;;26.17;14.52;;;;;;;;;;5000951;28;21805;-84
2023/01/30 01:09:04;;;;;;;27.33;14.95;;;;;;;;;;5007501;28;20034;-85
2023/01/30 01:11:29;;;;;;;26.63;15.07;;;;;;;;;;5008087;28;20069;-85
2023/01/30 01:13:57;;;;;;;27.55;15.07;;;;;;;;;;5003611;28;20684;-86
2023/01/30 01:16:23;;;;;;;26.13;14.73;;;;;;;;;;4992649;28;20044;-85
2023/01/30 01:18:49;;;;;;;29.00;15.25;;;;;;;;;;4990458;28;20033;-84
2023/01/30 01:21:15;;;;;;;29.42;15.05;;;;;;;;;;4994831;28;20032;-85
2023/01/30 01:23:41;;;;;;;25.70;14.35;;;;;;;;;;4985519;28;20026;-84
2023/01/30 01:26:07;;;;;;;25.65;14.77;;;;;;;;;;5005672;28;20080;-83
2023/01/30 01:28:32;;;;;;;25.77;15.07;;;;;;;;;;5008460;28;20156;-85
2023/01/30 01:30:57;;;;;;;26.00;14.88;;;;;;;;;;4987669;28;20061;-85
2023/01/30 01:33:29;;;;;;;25.77;14.60;;;;;;;;;;5008769;28;20026;-85
2023/01/30 01:35:56;;;;;;;23.92;13.65;;;;;;;;;;4984457;28;20034;-81
2023/01/30 01:38:21;;;;;;;26.10;14.98;;;;;;;;;;5000053;28;20084;-83
2023/01/30 01:41:01;;;;;;;25.02;13.80;;;;;;;;;;5005643;28;20022;-84
2023/01/30 01:43:30;;;;;;;26.35;14.18;;;;;;;;;;4980514;28;20053;-83
2023/01/30 01:46:17;;;;;;;25.80;13.77;;;;;;;;;;5005266;28;20034;-84
2023/01/30 01:48:50;;;;;;;26.70;13.65;;;;;;;;;;5001390;28;20053;-84
2023/01/30 01:51:22;;;;;;;24.83;13.15;;;;;;;;;;4987351;28;20037;-84
2023/01/30 01:54:04;;;;;;;22.10;12.60;;;;;;;;;;5004663;28;21829;-84
2023/01/30 01:56:33;;;;;;;24.02;13.10;;;;;;;;;;4988466;28;20021;-80
2023/01/30 01:59:07;;;;;;;22.92;13.90;;;;;;;;;;5011332;28;20030;-85
2023/01/30 02:01:33;;;;;;;20.40;11.13;;;;;;;;;;4987166;28;20026;-84
2023/01/30 02:04:03;;;;;;;23.80;10.93;;;;;;;;;;4989365;28;20037;-84
2023/01/30 02:06:31;;;;;;;21.52;11.30;;;;;;;;;;5007456;28;20446;-85
2023/01/30 02:09:01;;;;;;;17.05;10.32;;;;;;;;;;4990464;28;20057;-84
2023/01/30 02:11:43;;;;;;;18.38;10.23;;;;;;;;;;4996915;28;20117;-85
2023/01/30 02:14:11;;;;;;;16.40;9.73;;;;;;;;;;4989656;28;20922;-85
2023/01/30 02:16:36;;;;;;;14.00;9.00;;;;;;;;;;4992839;28;20108;-84
2023/01/30 02:19:06;;;;;;;14.57;7.45;;;;;;;;;;5007361;28;20521;-82
2023/01/30 02:21:52;;;;;;;14.93;7.20;;;;;;;;;;4990815;28;20456;-85
2023/01/30 02:24:41;;;;;;;18.90;7.57;;;;;;;;;;4990496;28;20142;-84
2023/01/30 02:27:25;;;;;;;11.63;6.85;;;;;;;;;;4988416;28;20032;-80
2023/01/30 02:30:09;;;;;;;12.48;6.78;;;;;;;;;;5003721;28;20516;-85
2023/01/30 02:33:13;;;;;;;13.60;7.00;;;;;;;;;;4997753;28;20072;-85
2023/01/30 02:35:57;;;;;;;16.63;6.85;;;;;;;;;;4975774;28;20136;-82
2023/01/30 02:38:42;;;;;;;11.88;6.88;;;;;;;;;;5006376;28;21380;-83
2023/01/30 02:41:34;;;;;;;11.70;6.45;;;;;;;;;;5000754;28;20061;-85
2023/01/30 02:44:05;;;;;;;10.63;6.07;;;;;;;;;;4995542;28;20379;-82
2023/01/30 02:46:51;;;;;;;12.77;6.80;;;;;;;;;;4985343;28;21252;-84
2023/01/30 02:49:39;;;;;;;12.10;6.65;;;;;;;;;;5006470;28;20041;-85
2023/01/30 02:52:07;;;;;;;14.13;6.50;;;;;;;;;;5002573;28;20025;-84
2023/01/30 02:54:32;;;;;;;10.10;6.38;;;;;;;;;;5004078;28;20068;-84
2023/01/30 02:56:58;;;;;;;15.35;6.20;;;;;;;;;;5000713;28;20026;-84
2023/01/30 02:59:28;;;;;;;8.80;5.70;;;;;;;;;;4985106;28;20552;-84
2023/01/30 03:02:14;;;;;;;12.27;6.60;;;;;;;;;;4989654;28;20030;-84
2023/01/30 03:05:24;;;;;;;9.18;5.72;;;;;;;;;;5003377;28;20038;-83
2023/01/30 03:08:06;;;;;;;8.93;5.20;;;;;;;;;;4943227;28;20418;-83
2023/01/30 03:11:00;;;;;;;9.93;5.40;;;;;;;;;;5004838;28;20030;-84
2023/01/30 03:13:41;;;;;;;9.20;5.30;;;;;;;;;;5005533;28;20026;-84
2023/01/30 03:16:19;;;;;;;9.00;5.18;;;;;;;;;;5005749;28;20390;-84
2023/01/30 03:18:46;;;;;;;8.50;4.78;;;;;;;;;;5006477;28;20025;-84
2023/01/30 03:21:11;;;;;;;9.70;4.82;;;;;;;;;;5010940;28;20026;-84
2023/01/30 03:23:37;;;;;;;9.43;5.38;;;;;;;;;;5002502;28;20042;-84
2023/01/30 03:26:11;;;;;;;7.90;5.05;;;;;;;;;;5009152;28;20034;-84
2023/01/30 03:28:37;;;;;;;7.72;4.93;;;;;;;;;;4988963;28;20399;-83
2023/01/30 03:31:03;;;;;;;12.20;5.07;;;;;;;;;;4998696;28;20025;-81
2023/01/30 03:33:28;;;;;;;9.05;4.80;;;;;;;;;;4983399;28;20022;-81
2023/01/30 03:35:53;;;;;;;10.35;4.97;;;;;;;;;;5006956;28;20032;-84
2023/01/30 03:38:19;;;;;;;7.72;4.53;;;;;;;;;;4985901;28;20030;-83
2023/01/30 03:40:45;;;;;;;7.95;4.50;;;;;;;;;;4990457;28;20049;-83
2023/01/30 03:43:10;;;;;;;8.27;4.70;;;;;;;;;;5005327;28;20061;-81
2023/01/30 03:45:35;;;;;;;8.88;4.22;;;;;;;;;;4988218;28;20099;-82
2023/01/30 03:48:01;;;;;;;7.43;4.32;;;;;;;;;;5000354;28;20033;-84
2023/01/30 03:50:28;;;;;;;10.82;4.15;;;;;;;;;;5000118;28;20132;-79
2023/01/30 03:52:53;;;;;;;9.30;4.68;;;;;;;;;;5004914;28;20381;-84
2023/01/30 03:55:19;;;;;;;8.18;4.70;;;;;;;;;;5000719;28;20113;-84
2023/01/30 03:57:44;;;;;;;8.73;4.47;;;;;;;;;;5001819;28;20386;-85
2023/01/30 04:00:10;;;;;;;11.18;5.03;;;;;;;;;;4987444;28;20097;-84
2023/01/30 04:02:37;;;;;;;9.43;4.68;;;;;;;;;;5004400;28;20038;-83
2023/01/30 04:05:03;;;;;;;8.60;4.28;;;;;;;;;;4987380;28;20069;-84
2023/01/30 04:07:28;;;;;;;10.60;4.95;;;;;;;;;;5003902;28;20038;-83
2023/01/30 04:09:54;;;;;;;9.85;5.13;;;;;;;;;;5001999;28;20045;-84
2023/01/30 04:12:19;;;;;;;9.15;4.05;;;;;;;;;;5004868;28;20025;-83
2023/01/30 04:14:45;;;;;;;8.50;4.55;;;;;;;;;;5003790;28;20389;-83
2023/01/30 04:17:10;;;;;;;10.05;4.13;;;;;;;;;;4988901;28;20080;-83
2023/01/30 04:19:35;;;;;;;10.65;4.25;;;;;;;;;;4975525;28;20049;-83
2023/01/30 04:22:01;;;;;;;6.82;4.35;;;;;;;;;;5005494;28;20021;-84
2023/01/30 04:24:26;;;;;;;10.40;4.65;;;;;;;;;;5005315;28;20037;-84
2023/01/30 04:26:52;;;;;;;9.15;4.13;;;;;;;;;;4985726;28;20480;-84
2023/01/30 04:29:17;;;;;;;11.07;4.80;;;;;;;;;;5004730;28;20029;-83
2023/01/30 04:31:43;;;;;;;8.15;4.50;;;;;;;;;;5008094;28;20026;-84
2023/01/30 04:34:08;;;;;;;9.85;4.25;;;;;;;;;;5001703;28;20022;-84
2023/01/30 04:36:35;;;;;;;9.30;4.00;;;;;;;;;;5004592;28;20061;-84
2023/01/30 04:39:01;;;;;;;8.27;4.30;;;;;;;;;;5000683;28;20430;-84
2023/01/30 04:41:26;;;;;;;10.15;4.82;;;;;;;;;;5005061;28;20026;-84
2023/01/30 04:43:51;;;;;;;9.43;4.20;;;;;;;;;;4990896;28;20529;-84
2023/01/30 04:46:17;;;;;;;11.25;4.45;;;;;;;;;;4998069;28;20022;-84
2023/01/30 04:48:42;;;;;;;10.57;4.47;;;;;;;;;;5003359;28;20058;-85
2023/01/30 04:51:08;;;;;;;9.20;4.30;;;;;;;;;;5005482;28;20100;-84
2023/01/30 04:53:33;;;;;;;13.20;4.95;;;;;;;;;;4984047;28;20109;-81
2023/01/30 04:55:58;;;;;;;13.82;4.80;;;;;;;;;;4982924;28;20560;-84
2023/01/30 04:58:24;;;;;;;10.48;4.40;;;;;;;;;;4993876;28;20026;-84
2023/01/30 05:00:49;;;;;;;11.18;4.22;;;;;;;;;;5001159;28;20085;-84
2023/01/30 05:03:15;;;;;;;10.95;3.88;;;;;;;;;;5002610;28;20362;-82
2023/01/30 05:05:41;;;;;;;9.55;3.85;;;;;;;;;;5007153;28;20038;-83
2023/01/30 05:08:06;;;;;;;11.50;4.30;;;;;;;;;;5002490;28;20045;-84
2023/01/30 05:10:32;;;;;;;12.73;4.13;;;;;;;;;;4987390;28;20029;-82
2023/01/30 05:13:02;;;;;;;9.60;4.13;;;;;;;;;;5001726;28;20337;-84
2023/01/30 05:15:28;;;;;;;9.65;3.97;;;;;;;;;;5006189;28;20054;-84
2023/01/30 05:17:54;;;;;;;11.73;3.80;;;;;;;;;;4988704;28;20025;-84
2023/01/30 05:20:19;;;;;;;9.75;4.03;;;;;;;;;;5006699;28;20577;-83
2023/01/30 05:22:44;;;;;;;11.05;3.85;;;;;;;;;;4985797;28;20045;-84
2023/01/30 05:25:10;;;;;;;8.80;3.67;;;;;;;;;;5004896;28;20483;-83
2023/01/30 05:27:35;;;;;;;8.13;3.53;;;;;;;;;;4991270;28;20030;-80
2023/01/30 05:30:01;;;;;;;6.82;3.10;;;;;;;;;;5004893;28;20474;-81
2023/01/30 05:32:29;;;;;;;11.57;4.25;;;;;;;;;;5005234;28;20085;-84
2023/01/30 05:34:54;;;;;;;8.85;3.17;;;;;;;;;;5003512;28;20088;-83
2023/01/30 05:37:21;;;;;;;10.55;3.47;;;;;;;;;;4986475;28;20030;-84
2023/01/30 05:39:46;;;;;;;8.75;2.95;;;;;;;;;;5002707;28;20037;-84
2023/01/30 05:42:11;;;;;;;12.18;2.92;;;;;;;;;;5007466;28;20041;-83
2023/01/30 05:44:37;;;;;;;9.55;2.97;;;;;;;;;;5001658;28;20029;-84
2023/01/30 05:47:02;;;;;;;6.45;2.88;;;;;;;;;;4990357;28;20489;-84
2023/01/30 05:49:28;;;;;;;8.27;2.85;;;;;;;;;;5004913;28;20099;-81
2023/01/30 05:51:53;;;;;;;13.15;3.40;;;;;;;;;;5003130;28;20057;-83
2023/01/30 05:54:18;;;;;;;9.23;2.63;;;;;;;;;;4989397;28;20029;-81
2023/01/30 05:56:48;;;;;;;6.25;2.10;;;;;;;;;;5004558;28;20022;-83
2023/01/30 05:59:14;;;;;;;9.65;1.90;;;;;;;;;;5010184;28;20072;-82
2023/01/30 06:01:39;;;;;;;7.13;1.48;;;;;;;;;;4997969;28;20080;-83
2023/01/30 06:04:04;;;;;;;5.20;1.70;;;;;;;;;;5007035;28;20034;-83
2023/01/30 06:06:30;;;;;;;6.57;1.60;;;;;;;;;;5004067;28;20124;-82
2023/01/30 06:08:55;;;;;;;4.45;1.42;;;;;;;;;;4982833;28;20121;-80
2023/01/30 06:11:22;;;;;;;6.68;1.58;;;;;;;;;;5003648;28;20048;-83
2023/01/30 06:13:48;;;;;;;5.45;1.48;;;;;;;;;;5010782;28;20028;-83
2023/01/30 06:16:16;;;;;;;7.68;1.50;;;;;;;;;;4991248;28;20026;-83
2023/01/30 06:18:41;;;;;;;4.18;1.15;;;;;;;;;;5005226;28;20088;-82
2023/01/30 06:21:08;;;;;;;4.88;1.38;;;;;;;;;;5006371;28;20481;-83
2023/01/30 06:23:33;;;;;;;6.82;1.45;;;;;;;;;;5007689;28;20080;-83
2023/01/30 06:25:59;;;;;;;6.18;1.25;;;;;;;;;;4988575;28;20058;-83
2023/01/30 06:28:25;;;;;;;6.75;1.33;;;;;;;;;;5002121;28;20081;-83
2023/01/30 06:30:51;;;;;;;6.40;1.67;;;;;;;;;;4992074;28;20489;-83
2023/01/30 06:33:17;;;;;;;6.60;1.60;;;;;;;;;;4991914;28;20371;-81
2023/01/30 06:35:43;;;;;;;6.78;1.70;;;;;;;;;;5009463;28;20088;-83
2023/01/30 06:38:10;;;;;;;5.13;1.42;;;;;;;;;;4984316;28;20030;-83
2023/01/30 06:40:39;;;;;;;7.05;2.00;;;;;;;;;;4993130;28;20108;-83
2023/01/30 06:43:05;;;;;;;5.72;1.30;;;;;;;;;;5002266;28;20556;-82
2023/01/30 06:45:30;;;;;;;6.13;1.27;;;;;;;;;;5003617;28;21233;-83
2023/01/30 06:47:56;;;;;;;4.63;1.13;;;;;;;;;;4993612;28;20405;-81
2023/01/30 06:50:24;;;;;;;3.58;1.27;;;;;;;;;;4990004;28;20022;-81
2023/01/30 06:52:51;;;;;;;4.57;1.52;;;;;;;;;;5002089;28;20064;-83
2023/01/30 06:55:18;;;;;;;5.47;1.60;;;;;;;;;;5006922;28;20022;-83
2023/01/30 06:57:44;;;;;;;5.20;1.40;;;;;;;;;;5001749;28;20060;-82
2023/01/30 07:00:13;;;;;;;9.50;1.60;;;;;;;;;;4991686;28;20033;-82
2023/01/30 07:02:38;;;;;;;7.85;1.30;;;;;;;;;;5003691;28;20029;-83
2023/01/30 07:05:06;;;;;;;6.03;1.50;;;;;;;;;;5007291;28;20026;-83
2023/01/30 07:07:32;;;;;;;5.57;1.23;;;;;;;;;;5006643;28;20029;-83
2023/01/30 07:09:57;;;;;;;7.90;1.73;;;;;;;;;;5003928;28;20504;-83
2023/01/30 07:12:24;;;;;;;6.32;1.55;;;;;;;;;;5004118;28;20371;-82
2023/01/30 07:14:51;;;;;;;6.80;1.52;;;;;;;;;;4978830;28;20060;-84
2023/01/30 07:17:16;;;;;;;6.22;1.75;;;;;;;;;;5004087;28;20505;-81
2023/01/30 07:19:42;;;;;;;5.63;1.73;;;;;;;;;;5001689;28;20025;-83
2023/01/30 07:22:08;;;;;;;6.18;1.50;;;;;;;;;;5002475;28;20120;-80
2023/01/30 07:24:33;;;;;;;7.85;1.33;;;;;;;;;;4983992;28;20052;-81
2023/01/30 07:26:58;;;;;;;6.80;1.30;;;;;;;;;;4979937;28;20038;-79
2023/01/30 07:29:24;;;;;;;7.25;1.65;;;;;;;;;;4999655;28;20080;-80
2023/01/30 07:31:50;;;;;;;7.80;1.67;;;;;;;;;;5009188;28;20746;-83
2023/01/30 07:34:16;;;;;;;8.65;2.00;;;;;;;;;;4997444;28;20483;-83
2023/01/30 07:36:41;;;;;;;11.20;2.33;;;;;;;;;;5004619;28;20061;-83
2023/01/30 07:39:08;;;;;;;8.25;1.73;;;;;;;;;;5000768;28;20033;-83
2023/01/30 07:41:34;;;;;;;5.22;1.38;;;;;;;;;;4986084;28;20036;-82
2023/01/30 07:43:59;;;;;;;5.93;1.35;;;;;;;;;;4991019;28;20030;-82
2023/01/30 07:46:25;;;;;;;8.02;1.55;;;;;;;;;;4991164;28;20038;-83
2023/01/30 07:48:50;;;;;;;6.32;1.08;;;;;;;;;;5001678;28;20104;-82
2023/01/30 07:51:15;;;;;;;8.75;1.52;;;;;;;;;;5009637;28;20025;-83
2023/01/30 07:53:41;;;;;;;7.47;1.30;;;;;;;;;;5000318;28;20030;-81
2023/01/30 07:56:13;;;;;;;12.25;1.80;;;;;;;;;;5005303;28;20040;-84
2023/01/30 07:58:38;;;;;;;9.23;1.90;;;;;;;;;;5001217;28;20072;-82
2023/01/30 08:01:04;;;;;;;7.95;1.40;;;;;;;;;;5007642;28;20061;-84
2023/01/30 08:03:30;;;;;;;8.55;1.70;;;;;;;;;;5007781;28;20041;-84
2023/01/30 08:05:55;;;;;;;9.48;1.73;;;;;;;;;;5004888;28;20045;-81
2023/01/30 08:08:20;;;;;;;11.30;1.48;;;;;;;;;;5008571;28;20034;-84
2023/01/30 08:10:49;;;;;;;6.75;1.45;;;;;;;;;;5005367;28;20030;-84
2023/01/30 08:13:14;;;;;;;12.90;1.48;;;;;;;;;;5009660;28;20044;-84
2023/01/30 08:15:40;;;;;;;10.02;1.48;;;;;;;;;;5004273;28;20037;-84
2023/01/30 08:18:08;;;;;;;8.50;1.33;;;;;;;;;;4993140;28;20033;-83
2023/01/30 08:20:34;;;;;;;11.75;1.27;;;;;;;;;;5006133;28;20398;-83
2023/01/30 08:23:01;;;;;;;7.90;1.48;;;;;;;;;;5006389;28;20041;-83
2023/01/30 08:25:26;;;;;;;7.50;1.13;;;;;;;;;;4993945;28;20060;-83
2023/01/30 08:27:52;;;;;;;8.77;1.20;;;;;;;;;;4995354;28;20022;-83
2023/01/30 08:30:18;;;;;;;12.70;2.00;;;;;;;;;;4998602;28;20165;-84
2023/01/30 08:32:44;;;;;;;8.27;1.40;;;;;;;;;;5003863;28;20049;-80
2023/01/30 08:35:09;;;;;;;13.57;1.50;;;;;;;;;;5005892;28;20026;-84
2023/01/30 08:37:35;;;;;;;7.55;1.50;;;;;;;;;;5007093;28;20030;-83
2023/01/30 08:40:01;;;;;;;7.88;1.20;;;;;;;;;;4984925;28;20045;-82
2023/01/30 08:42:26;;;;;;;9.82;2.55;;;;;;;;;;5006941;28;20543;-83
2023/01/30 08:44:51;;;;;;;9.43;1.23;;;;;;;;;;4993843;28;20049;-83
2023/01/30 08:47:17;;;;;;;8.48;1.40;;;;;;;;;;5009731;28;20087;-83
2023/01/30 08:49:42;;;;;;;4.20;0.95;;;;;;;;;;4992778;28;20025;-84
2023/01/30 08:52:07;;;;;;;11.32;1.35;;;;;;;;;;5003209;28;20037;-83
2023/01/30 08:54:33;;;;;;;6.72;1.35;;;;;;;;;;5011301;28;20052;-83
2023/01/30 08:56:58;;;;;;;10.52;1.75;;;;;;;;;;5008455;28;20025;-83
2023/01/30 08:59:23;;;;;;;9.23;1.20;;;;;;;;;;5010330;28;20069;-83
2023/01/30 09:01:49;;;;;;;8.27;1.33;;;;;;;;;;5005180;28;20044;-81
2023/01/30 09:04:14;;;;;;;8.30;1.35;;;;;;;;;;5003399;28;20034;-82
2023/01/30 09:06:40;;;;;;;5.80;1.05;;;;;;;;;;4981829;28;20036;-83
2023/01/30 09:09:05;;;;;;;6.80;1.20;;;;;;;;;;4986329;28;20034;-83
2023/01/30 09:11:30;;;;;;;13.10;1.65;;;;;;;;;;4981148;28;20454;-81
2023/01/30 09:13:56;;;;;;;8.98;1.60;;;;;;;;;;4985197;28;20128;-81
2023/01/30 09:16:21;;;;;;;8.48;1.73;;;;;;;;;;5006224;28;20032;-83
2023/01/30 09:18:47;;;;;;;8.02;1.63;;;;;;;;;;4992740;28;20092;-83
2023/01/30 09:21:12;;;;;;;12.82;1.75;;;;;;;;;;4987333;28;20029;-79
2023/01/30 09:23:38;;;;;;;6.63;1.20;;;;;;;;;;5003859;28;20057;-82
2023/01/30 09:26:04;;;;;;;10.38;1.40;;;;;;;;;;5005463;28;20030;-83
2023/01/30 09:28:30;;;;;;;9.07;1.40;;;;;;;;;;4989018;28;20037;-83
2023/01/30 09:31:00;;;;;;;8.05;1.48;;;;;;;;;;5003892;28;20029;-80
2023/01/30 09:33:26;;;;;;;8.15;1.30;;;;;;;;;;4999856;28;20064;-82
2023/01/30 09:35:51;;;;;;;8.65;1.45;;;;;;;;;;4989728;28;20022;-83
2023/01/30 09:38:17;;;;;;;7.85;1.40;;;;;;;;;;5006899;28;20030;-82
2023/01/30 09:41:03;;;;;;;7.68;1.33;;;;;;;;;;4988281;28;20026;-83
2023/01/30 09:43:41;;;;;;;8.05;1.58;;;;;;;;;;5004973;28;20035;-84
2023/01/30 09:46:29;;;;;;;8.75;1.45;;;;;;;;;;5003627;28;20026;-84
2023/01/30 09:49:29;;;;;;;9.05;1.05;;;;;;;;;;5005967;28;20075;-82
2023/01/30 09:52:15;;;;;;;9.23;1.38;;;;;;;;;;4990265;28;20056;-83
2023/01/30 09:54:44;;;;;;;8.98;1.50;;;;;;;;;;4990104;28;20478;-84
2023/01/30 09:57:20;;;;;;;5.53;1.02;;;;;;;;;;5004819;28;20034;-84
2023/01/30 10:00:00;;;;;;;8.60;1.60;;;;;;;;;;5006354;28;20097;-82
2023/01/30 10:02:33;;;;;;;9.90;1.33;;;;;;;;;;5011265;28;20573;-83
2023/01/30 10:05:00;;;;;;;12.90;1.70;;;;;;;;;;5006302;28;20033;-84
2023/01/30 10:07:42;;;;;;;6.78;1.23;;;;;;;;;;4992888;28;20034;-82
2023/01/30 10:10:32;;;;;;;11.65;1.88;;;;;;;;;;5004966;28;20065;-83
2023/01/30 10:13:30;;;;;;;10.30;1.50;;;;;;;;;;4996625;28;20053;-83
2023/01/30 10:16:00;;;;;;;5.63;0.88;;;;;;;;;;4992689;28;20042;-84
2023/01/30 10:18:59;;;;;;;8.70;1.38;;;;;;;;;;5005755;28;20030;-84
2023/01/30 10:21:51;;;;;;;7.95;1.33;;;;;;;;;;4984561;28;20038;-83
2023/01/30 10:24:52;;;;;;;6.70;1.17;;;;;;;;;;5005999;28;20437;-83
2023/01/30 10:27:20;;;;;;;5.03;1.27;;;;;;;;;;4999127;28;20022;-83
2023/01/30 10:29:55;;;;;;;6.28;1.30;;;;;;;;;;4996525;28;20033;-81
2023/01/30 10:32:28;;;;;;;9.07;1.25;;;;;;;;;;4989546;28;20037;-83
2023/01/30 10:34:59;;;;;;;7.40;1.50;;;;;;;;;;4991719;28;20080;-80
2023/01/30 10:38:06;;;;;;;7.97;1.00;;;;;;;;;;4986239;28;20062;-83
2023/01/30 10:40:43;;;;;;;8.13;1.40;;;;;;;;;;4932470;29;20046;-83
2023/01/30 10:43:21;;;;;;;6.53;1.45;;;;;;;;;;4930927;29;20028;-84
2023/01/30 10:45:54;;;;;;;9.45;1.38;;;;;;;;;;4976445;28;20041;-83
2023/01/30 10:48:50;;;;;;;5.15;1.08;;;;;;;;;;5006018;28;20481;-83
2023/01/30 10:51:51;;;;;;;6.70;1.05;;;;;;;;;;5007242;28;20064;-83
2023/01/30 10:54:39;;;;;;;5.88;1.40;;;;;;;;;;4992596;28;20116;-83
2023/01/30 10:57:23;;;;;;;9.13;1.85;;;;;;;;;;5008896;28;20022;-84
2023/01/30 11:00:05;;;;;;;6.15;1.13;;;;;;;;;;5007957;28;20026;-83
2023/01/30 11:02:52;;;;;;;7.38;1.38;;;;;;;;;;5006958;28;20509;-83
2023/01/30 11:05:23;;;;;;;6.18;1.35;;;;;;;;;;5004754;28;20026;-84
2023/01/30 11:07:48;;;;;;;7.50;1.33;;;;;;;;;;5004460;28;20043;-85
2023/01/30 11:10:20;;;;;;;9.68;1.13;;;;;;;;;;5005340;28;20030;-80
2023/01/30 11:12:45;;;;;;;11.68;1.60;;;;;;;;;;4995674;28;20034;-84
2023/01/30 11:15:11;;;;;;;3.10;0.90;;;;;;;;;;4994072;28;20485;-85
2023/01/30 11:17:40;;;;;;;8.52;1.27;;;;;;;;;;5011251;28;20032;-82
2023/01/30 11:20:26;;;;;;;9.95;1.50;;;;;;;;;;4993558;28;20107;-83
2023/01/30 11:23:04;;;;;;;7.40;1.73;;;;;;;;;;5007591;28;20076;-84
2023/01/30 11:25:30;;;;;;;11.10;1.83;;;;;;;;;;5007681;28;20073;-83
2023/01/30 11:28:01;;;;;;;14.10;1.60;;;;;;;;;;5009568;28;20080;-83
2023/01/30 11:30:29;;;;;;;7.45;1.25;;;;;;;;;;4986776;28;20033;-84
2023/01/30 11:33:10;;;;;;;5.35;0.95;;;;;;;;;;5005567;28;20030;-82
2023/01/30 11:35:55;;;;;;;7.75;1.60;;;;;;;;;;5003473;28;20113;-81
2023/01/30 11:38:26;;;;;;;9.52;1.65;;;;;;;;;;5004120;28;20445;-83
2023/01/30 11:41:17;;;;;;;8.98;1.58;;;;;;;;;;4982478;28;20385;-83
2023/01/30 11:43:42;;;;;;;8.30;1.23;;;;;;;;;;5006262;28;20026;-83
2023/01/30 11:46:11;;;;;;;14.02;1.58;;;;;;;;;;4988538;28;20386;-84
2023/01/30 11:48:57;;;;;;;11.48;1.55;;;;;;;;;;5006535;28;20037;-84
2023/01/30 11:51:24;;;;;;;9.30;1.35;;;;;;;;;;4988192;28;20034;-85
2023/01/30 11:54:04;;;;;;;7.72;1.48;;;;;;;;;;4985003;28;20026;-83
2023/01/30 11:56:52;;;;;;;8.18;1.70;;;;;;;;;;5005280;28;20477;-83
2023/01/30 11:59:33;;;;;;;8.27;1.38;;;;;;;;;;5007488;28;20640;-83
2023/01/30 12:02:15;;;;;;;7.75;1.63;;;;;;;;;;5003779;28;20036;-83
2023/01/30 12:04:52;;;;;;;10.63;1.45;;;;;;;;;;4989132;28;20429;-83
2023/01/30 12:07:27;;;;;;;10.57;1.92;;;;;;;;;;4983885;28;20026;-84
2023/01/30 12:09:53;;;;;;;8.18;1.35;;;;;;;;;;5006566;28;20037;-83
2023/01/30 12:12:46;;;;;;;10.23;1.95;;;;;;;;;;5003955;28;20040;-83
2023/01/30 12:15:27;;;;;;;8.65;1.30;;;;;;;;;;4998314;28;20026;-82
2023/01/30 12:17:58;;;;;;;15.10;2.20;;;;;;;;;;5007913;28;20037;-84
2023/01/30 12:20:38;;;;;;;8.25;1.92;;;;;;;;;;5008496;28;20054;-84
2023/01/30 12:23:15;;;;;;;12.80;1.88;;;;;;;;;;5004249;28;20030;-84
2023/01/30 12:26:11;;;;;;;7.35;1.50;;;;;;;;;;5003971;28;20550;-83
2023/01/30 12:28:55;;;;;;;7.28;1.33;;;;;;;;;;4993413;28;20060;-83
2023/01/30 12:31:40;;;;;;;8.27;1.83;;;;;;;;;;4999008;28;20018;-84
2023/01/30 12:34:08;;;;;;;11.48;1.98;;;;;;;;;;5002021;28;20029;-84
2023/01/30 12:36:48;;;;;;;10.32;2.17;;;;;;;;;;5000009;28;20037;-85
2023/01/30 12:39:36;;;;;;;9.38;1.77;;;;;;;;;;5007985;28;20036;-84
2023/01/30 12:42:28;;;;;;;10.82;1.85;;;;;;;;;;5001189;28;20025;-83
2023/01/30 12:45:00;;;;;;;8.23;1.57;;;;;;;;;;5007967;28;20120;-85
2023/01/30 12:47:37;;;;;;;12.40;1.73;;;;;;;;;;4996439;28;20030;-84
2023/01/30 12:50:26;;;;;;;10.65;1.85;;;;;;;;;;4988299;28;20382;-83
2023/01/30 12:52:55;;;;;;;12.07;1.92;;;;;;;;;;5004530;28;20084;-83
2023/01/30 12:55:43;;;;;;;12.00;2.20;;;;;;;;;;5004408;28;20026;-84
2023/01/30 12:58:52;;;;;;;8.18;1.38;;;;;;;;;;4982789;28;20030;-83
2023/01/30 13:01:32;;;;;;;8.90;1.23;;;;;;;;;;4993268;28;20030;-84
2023/01/30 13:04:32;;;;;;;10.40;1.42;;;;;;;;;;5005736;28;20526;-84
2023/01/30 13:07:26;;;;;;;8.40;1.33;;;;;;;;;;4993819;28;20398;-84
2023/01/30 13:10:15;;;;;;;9.77;1.33;;;;;;;;;;5004335;28;20083;-80
2023/01/30 13:12:59;;;;;;;10.63;1.40;;;;;;;;;;5004062;28;20532;-84
2023/01/30 13:15:33;;;;;;;8.57;1.38;;;;;;;;;;4985754;28;20026;-84
2023/01/30 13:18:36;;;;;;;10.32;1.20;;;;;;;;;;4988330;28;20504;-83
2023/01/30 13:21:12;;;;;;;14.43;1.80;;;;;;;;;;5006501;28;20033;-82
2023/01/30 13:23:38;;;;;;;9.30;1.70;;;;;;;;;;5007345;28;20121;-83
2023/01/30 13:26:10;;;;;;;8.90;1.25;;;;;;;;;;5002021;28;20105;-83
2023/01/30 13:28:46;;;;;;;11.52;1.38;;;;;;;;;;5007297;28;20037;-83
2023/01/30 13:31:16;;;;;;;10.95;1.73;;;;;;;;;;5008001;28;20520;-84
2023/01/30 13:33:44;;;;;;;11.27;1.85;;;;;;;;;;4987234;28;20028;-83
2023/01/30 13:36:16;;;;;;;13.13;1.73;;;;;;;;;;4989936;28;20072;-83
2023/01/30 13:39:08;;;;;;;9.32;1.15;;;;;;;;;;5011557;28;20053;-83
2023/01/30 13:41:44;;;;;;;11.02;1.10;;;;;;;;;;5006132;28;20477;-84
2023/01/30 13:44:18;;;;;;;10.18;1.52;;;;;;;;;;5008444;28;20120;-83
2023/01/30 13:46:45;;;;;;;5.88;1.02;;;;;;;;;;5004829;28;20033;-83
2023/01/30 13:49:36;;;;;;;6.35;1.08;;;;;;;;;;5002900;28;20100;-83
2023/01/30 13:52:09;;;;;;;10.15;1.40;;;;;;;;;;5006681;28;20152;-84
2023/01/30 13:55:06;;;;;;;9.02;1.48;;;;;;;;;;5004903;28;20095;-83
2023/01/30 13:57:40;;;;;;;12.25;1.83;;;;;;;;;;4981523;28;20088;-83
2023/01/30 14:00:27;;;;;;;16.70;1.80;;;;;;;;;;4993190;28;20053;-83
2023/01/30 14:03:02;;;;;;;11.30;1.65;;;;;;;;;;5005760;28;20032;-82
2023/01/30 14:05:59;;;;;;;9.77;1.92;;;;;;;;;;5007681;28;20034;-83
2023/01/30 14:08:37;;;;;;;11.98;2.38;;;;;;;;;;4995468;28;20105;-83
2023/01/30 14:11:02;;;;;;;8.57;1.30;;;;;;;;;;5009987;28;20034;-82
2023/01/30 14:13:28;;;;;;;8.48;1.52;;;;;;;;;;4993488;28;20561;-83
2023/01/30 14:15:55;;;;;;;10.50;2.08;;;;;;;;;;5011584;28;20469;-83
2023/01/30 14:18:22;;;;;;;14.35;2.05;;;;;;;;;;5010905;28;20105;-83
2023/01/30 14:20:50;;;;;;;7.93;1.30;;;;;;;;;;5010129;28;20466;-82
2023/01/30 14:23:20;;;;;;;8.00;1.30;;;;;;;;;;5009167;28;20030;-80
2023/01/30 14:25:51;;;;;;;8.18;1.55;;;;;;;;;;5007633;28;20045;-83
2023/01/30 14:28:17;;;;;;;14.18;1.75;;;;;;;;;;5008451;28;20030;-83
2023/01/30 14:30:51;;;;;;;12.98;1.58;;;;;;;;;;4986199;28;20076;-82
2023/01/30 14:33:19;;;;;;;12.65;1.55;;;;;;;;;;4991228;28;20026;-83
2023/01/30 14:35:46;;;;;;;8.25;1.67;;;;;;;;;;4994706;28;20572;-83
2023/01/30 14:38:16;;;;;;;8.38;1.63;;;;;;;;;;5011346;28;20112;-83
2023/01/30 14:41:26;;;;;;;13.52;1.77;;;;;;;;;;5007652;28;20112;-84
2023/01/30 14:43:52;;;;;;;11.40;1.35;;;;;;;;;;5007584;28;20034;-82
2023/01/30 14:46:17;;;;;;;9.02;1.60;;;;;;;;;;4984713;28;20036;-82
2023/01/30 14:48:55;;;;;;;10.77;1.58;;;;;;;;;;5003696;28;20395;-83
2023/01/30 14:51:24;;;;;;;11.00;1.35;;;;;;;;;;5005030;28;20398;-84
2023/01/30 14:54:08;;;;;;;11.68;1.70;;;;;;;;;;5008909;28;20018;-83
2023/01/30 14:57:04;;;;;;;7.88;1.80;;;;;;;;;;4998785;28;20034;-84
2023/01/30 14:59:56;;;;;;;6.95;1.17;;;;;;;;;;4994385;28;20490;-83
2023/01/30 15:02:27;;;;;;;10.43;1.40;;;;;;;;;;4988317;28;20040;-81
2023/01/30 15:05:16;;;;;;;14.07;1.73;;;;;;;;;;4992008;28;20033;-83
2023/01/30 15:07:44;;;;;;;12.93;1.83;;;;;;;;;;5011787;28;20022;-83